Terminal Aerodrome Forecast
Issued by NWS Cleveland, OH

Home | Current Version | Previous Version | Graphics & Text | Print | Product List | Glossary Off
Versions: 1 2 3 4 5 6 7 8 9 10 11 12 13 14 15 16 17 18

000
FTUS41 KCLE 010500
TAFERI
TAF
KERI 010523Z 0106/0206 03006KT 5SM BR SCT012 OVC035
      TEMPO 0106/0110 6SM -RA BR BKN012
     FM011000 02010KT 4SM -RA BR SCT008 OVC015
     FM011500 02014G22KT 3SM -SHRA BR OVC012
     FM020000 35014G22KT 3SM -RASN BR OVC012=

USA.gov is the U.S. government's official web portal to all federal, state and local government web resources and services.